sensor_id;sensor_type;location;lat;lon;timestamp;P1;durP1;ratioP1;P2;durP2;ratioP2
25299;SDS011;13241;51.208;4.432;2023-02-15T00:01:51;40.13;;;20.30;;
25299;SDS011;13241;51.208;4.432;2023-02-15T00:04:20;37.00;;;19.13;;
25299;SDS011;13241;51.208;4.432;2023-02-15T00:06:49;40.50;;;19.38;;
25299;SDS011;13241;51.208;4.432;2023-02-15T00:09:16;49.50;;;21.00;;
25299;SDS011;13241;51.208;4.432;2023-02-15T00:11:43;36.70;;;17.00;;
25299;SDS011;13241;51.208;4.432;2023-02-15T00:14:17;41.00;;;19.20;;
25299;SDS011;13241;51.208;4.432;2023-02-15T00:16:48;43.35;;;18.27;;
25299;SDS011;13241;51.208;4.432;2023-02-15T00:19:17;45.38;;;19.63;;
25299;SDS011;13241;51.208;4.432;2023-02-15T00:21:46;44.38;;;19.70;;
25299;SDS011;13241;51.208;4.432;2023-02-15T00:24:14;44.72;;;20.85;;
25299;SDS011;13241;51.208;4.432;2023-02-15T00:26:42;37.05;;;17.95;;
25299;SDS011;13241;51.208;4.432;2023-02-15T00:29:10;44.35;;;20.27;;
25299;SDS011;13241;51.208;4.432;2023-02-15T00:31:39;43.00;;;20.27;;
25299;SDS011;13241;51.208;4.432;2023-02-15T00:34:06;41.10;;;18.75;;
25299;SDS011;13241;51.208;4.432;2023-02-15T00:36:43;43.15;;;18.73;;
25299;SDS011;13241;51.208;4.432;2023-02-15T00:39:13;47.88;;;20.05;;
25299;SDS011;13241;51.208;4.432;2023-02-15T00:41:40;43.05;;;20.55;;
25299;SDS011;13241;51.208;4.432;2023-02-15T00:44:07;47.78;;;20.08;;
25299;SDS011;13241;51.208;4.432;2023-02-15T00:46:35;38.92;;;20.13;;
25299;SDS011;13241;51.208;4.432;2023-02-15T00:49:02;43.17;;;19.75;;
25299;SDS011;13241;51.208;4.432;2023-02-15T00:51:30;32.53;;;16.50;;
25299;SDS011;13241;51.208;4.432;2023-02-15T00:53:57;38.03;;;18.20;;
25299;SDS011;13241;51.208;4.432;2023-02-15T00:56:24;42.50;;;19.65;;
25299;SDS011;13241;51.208;4.432;2023-02-15T00:58:51;39.22;;;19.90;;
25299;SDS011;13241;51.208;4.432;2023-02-15T01:01:18;48.50;;;20.55;;
25299;SDS011;13241;51.208;4.432;2023-02-15T01:03:46;47.53;;;20.38;;
25299;SDS011;13241;51.208;4.432;2023-02-15T01:06:14;40.85;;;18.52;;
25299;SDS011;13241;51.208;4.432;2023-02-15T01:08:43;40.03;;;18.98;;
25299;SDS011;13241;51.208;4.432;2023-02-15T01:11:16;44.92;;;19.00;;
25299;SDS011;13241;51.208;4.432;2023-02-15T01:13:50;40.13;;;18.52;;
25299;SDS011;13241;51.208;4.432;2023-02-15T01:16:18;46.38;;;19.42;;
25299;SDS011;13241;51.208;4.432;2023-02-15T01:18:46;39.13;;;18.02;;
25299;SDS011;13241;51.208;4.432;2023-02-15T01:21:18;44.22;;;18.73;;
25299;SDS011;13241;51.208;4.432;2023-02-15T01:23:47;42.07;;;19.10;;
25299;SDS011;13241;51.208;4.432;2023-02-15T01:26:14;52.15;;;20.02;;
25299;SDS011;13241;51.208;4.432;2023-02-15T01:28:42;40.17;;;17.63;;
25299;SDS011;13241;51.208;4.432;2023-02-15T01:31:13;39.47;;;18.83;;
25299;SDS011;13241;51.208;4.432;2023-02-15T01:33:44;43.70;;;18.05;;
25299;SDS011;13241;51.208;4.432;2023-02-15T01:36:12;43.22;;;19.98;;
25299;SDS011;13241;51.208;4.432;2023-02-15T01:38:39;45.92;;;19.25;;
25299;SDS011;13241;51.208;4.432;2023-02-15T01:41:06;34.17;;;17.77;;
25299;SDS011;13241;51.208;4.432;2023-02-15T01:43:56;35.92;;;18.27;;
25299;SDS011;13241;51.208;4.432;2023-02-15T01:46:35;39.10;;;19.77;;
25299;SDS011;13241;51.208;4.432;2023-02-15T01:49:16;34.70;;;15.45;;
25299;SDS011;13241;51.208;4.432;2023-02-15T01:51:46;35.67;;;18.40;;
25299;SDS011;13241;51.208;4.432;2023-02-15T01:54:17;41.05;;;18.05;;
25299;SDS011;13241;51.208;4.432;2023-02-15T01:56:52;44.03;;;20.02;;
25299;SDS011;13241;51.208;4.432;2023-02-15T01:59:21;41.17;;;18.67;;
25299;SDS011;13241;51.208;4.432;2023-02-15T02:01:54;39.35;;;16.63;;
25299;SDS011;13241;51.208;4.432;2023-02-15T02:04:29;38.95;;;18.10;;
25299;SDS011;13241;51.208;4.432;2023-02-15T02:07:12;34.78;;;18.73;;
25299;SDS011;13241;51.208;4.432;2023-02-15T02:09:46;33.83;;;16.60;;
25299;SDS011;13241;51.208;4.432;2023-02-15T02:12:17;33.28;;;18.38;;
25299;SDS011;13241;51.208;4.432;2023-02-15T02:14:46;39.17;;;18.45;;
25299;SDS011;13241;51.208;4.432;2023-02-15T02:17:17;41.42;;;19.45;;
25299;SDS011;13241;51.208;4.432;2023-02-15T02:26:29;42.42;;;17.15;;
25299;SDS011;13241;51.208;4.432;2023-02-15T02:40:03;38.20;;;17.23;;
25299;SDS011;13241;51.208;4.432;2023-02-15T02:42:39;36.75;;;19.30;;
25299;SDS011;13241;51.208;4.432;2023-02-15T02:45:16;40.58;;;18.60;;
25299;SDS011;13241;51.208;4.432;2023-02-15T02:48:05;44.47;;;18.70;;
25299;SDS011;13241;51.208;4.432;2023-02-15T02:50:41;44.05;;;18.15;;
25299;SDS011;13241;51.208;4.432;2023-02-15T02:53:08;42.90;;;17.13;;
25299;SDS011;13241;51.208;4.432;2023-02-15T02:55:55;43.72;;;19.30;;
25299;SDS011;13241;51.208;4.432;2023-02-15T03:01:09;35.00;;;17.33;;
25299;SDS011;13241;51.208;4.432;2023-02-15T03:03:45;39.63;;;18.33;;
25299;SDS011;13241;51.208;4.432;2023-02-15T03:06:21;36.47;;;18.40;;
25299;SDS011;13241;51.208;4.432;2023-02-15T03:09:01;44.60;;;20.35;;
25299;SDS011;13241;51.208;4.432;2023-02-15T03:11:43;46.08;;;18.95;;
25299;SDS011;13241;51.208;4.432;2023-02-15T03:14:12;35.88;;;17.95;;
25299;SDS011;13241;51.208;4.432;2023-02-15T03:16:43;40.72;;;17.88;;
25299;SDS011;13241;51.208;4.432;2023-02-15T03:19:13;30.23;;;15.25;;
25299;SDS011;13241;51.208;4.432;2023-02-15T03:21:48;44.72;;;18.77;;
25299;SDS011;13241;51.208;4.432;2023-02-15T03:24:25;38.13;;;18.02;;
25299;SDS011;13241;51.208;4.432;2023-02-15T03:26:58;37.92;;;16.77;;
25299;SDS011;13241;51.208;4.432;2023-02-15T03:29:28;37.85;;;18.15;;
25299;SDS011;13241;51.208;4.432;2023-02-15T03:31:58;42.90;;;18.27;;
25299;SDS011;13241;51.208;4.432;2023-02-15T03:34:27;43.83;;;17.38;;
25299;SDS011;13241;51.208;4.432;2023-02-15T03:39:47;33.75;;;15.43;;
25299;SDS011;13241;51.208;4.432;2023-02-15T03:42:25;35.88;;;17.45;;
25299;SDS011;13241;51.208;4.432;2023-02-15T03:45:10;33.65;;;16.05;;
25299;SDS011;13241;51.208;4.432;2023-02-15T03:47:43;35.47;;;16.67;;
25299;SDS011;13241;51.208;4.432;2023-02-15T03:50:19;40.35;;;16.95;;
25299;SDS011;13241;51.208;4.432;2023-02-15T03:53:09;43.38;;;18.58;;
25299;SDS011;13241;51.208;4.432;2023-02-15T03:55:39;37.17;;;18.48;;
25299;SDS011;13241;51.208;4.432;2023-02-15T03:58:06;36.13;;;18.20;;
25299;SDS011;13241;51.208;4.432;2023-02-15T04:00:57;40.47;;;15.05;;
25299;SDS011;13241;51.208;4.432;2023-02-15T04:03:45;36.42;;;15.63;;
25299;SDS011;13241;51.208;4.432;2023-02-15T04:06:19;36.65;;;16.20;;
25299;SDS011;13241;51.208;4.432;2023-02-15T04:08:46;41.45;;;17.80;;
25299;SDS011;13241;51.208;4.432;2023-02-15T04:11:32;34.67;;;17.88;;
25299;SDS011;13241;51.208;4.432;2023-02-15T04:13:58;37.10;;;19.08;;
25299;SDS011;13241;51.208;4.432;2023-02-15T04:16:45;36.45;;;17.35;;
25299;SDS011;13241;51.208;4.432;2023-02-15T04:19:12;34.97;;;15.65;;
25299;SDS011;13241;51.208;4.432;2023-02-15T04:21:57;41.78;;;18.20;;
25299;SDS011;13241;51.208;4.432;2023-02-15T04:24:43;40.58;;;17.13;;
25299;SDS011;13241;51.208;4.432;2023-02-15T04:27:29;38.28;;;17.52;;
25299;SDS011;13241;51.208;4.432;2023-02-15T04:29:55;36.70;;;15.95;;
25299;SDS011;13241;51.208;4.432;2023-02-15T04:32:22;38.95;;;18.27;;
25299;SDS011;13241;51.208;4.432;2023-02-15T04:34:49;34.50;;;16.60;;
25299;SDS011;13241;51.208;4.432;2023-02-15T04:37:16;43.47;;;18.13;;
25299;SDS011;13241;51.208;4.432;2023-02-15T04:39:43;37.72;;;15.40;;
25299;SDS011;13241;51.208;4.432;2023-02-15T04:42:10;31.52;;;16.98;;
25299;SDS011;13241;51.208;4.432;2023-02-15T04:44:37;30.90;;;17.13;;
25299;SDS011;13241;51.208;4.432;2023-02-15T04:47:03;50.03;;;17.63;;
25299;SDS011;13241;51.208;4.432;2023-02-15T04:49:30;32.70;;;17.10;;
25299;SDS011;13241;51.208;4.432;2023-02-15T04:51:57;38.83;;;16.65;;
25299;SDS011;13241;51.208;4.432;2023-02-15T04:54:24;40.28;;;17.58;;
25299;SDS011;13241;51.208;4.432;2023-02-15T04:56:51;36.42;;;16.95;;
25299;SDS011;13241;51.208;4.432;2023-02-15T04:59:17;36.92;;;17.55;;
25299;SDS011;13241;51.208;4.432;2023-02-15T05:01:44;41.22;;;17.70;;
25299;SDS011;13241;51.208;4.432;2023-02-15T05:04:11;37.78;;;16.27;;
25299;SDS011;13241;51.208;4.432;2023-02-15T05:06:38;41.70;;;16.40;;
25299;SDS011;13241;51.208;4.432;2023-02-15T05:09:04;43.88;;;15.90;;
25299;SDS011;13241;51.208;4.432;2023-02-15T05:11:31;38.88;;;16.63;;
25299;SDS011;13241;51.208;4.432;2023-02-15T05:13:58;35.90;;;16.10;;
25299;SDS011;13241;51.208;4.432;2023-02-15T05:16:25;35.58;;;15.88;;
25299;SDS011;13241;51.208;4.432;2023-02-15T05:18:53;33.97;;;16.92;;
25299;SDS011;13241;51.208;4.432;2023-02-15T05:21:20;33.20;;;15.57;;
25299;SDS011;13241;51.208;4.432;2023-02-15T05:23:47;39.88;;;17.30;;
25299;SDS011;13241;51.208;4.432;2023-02-15T05:26:18;34.28;;;15.25;;
25299;SDS011;13241;51.208;4.432;2023-02-15T05:29:05;42.67;;;15.85;;
25299;SDS011;13241;51.208;4.432;2023-02-15T05:31:32;35.67;;;15.48;;
25299;SDS011;13241;51.208;4.432;2023-02-15T05:34:00;31.50;;;15.50;;
25299;SDS011;13241;51.208;4.432;2023-02-15T05:36:27;41.20;;;16.75;;
25299;SDS011;13241;51.208;4.432;2023-02-15T05:38:55;35.83;;;15.40;;
25299;SDS011;13241;51.208;4.432;2023-02-15T05:41:22;29.63;;;14.70;;
25299;SDS011;13241;51.208;4.432;2023-02-15T05:43:48;37.38;;;16.77;;
25299;SDS011;13241;51.208;4.432;2023-02-15T05:46:15;28.23;;;14.82;;
25299;SDS011;13241;51.208;4.432;2023-02-15T05:48:42;32.42;;;15.40;;
25299;SDS011;13241;51.208;4.432;2023-02-15T05:51:09;35.92;;;15.75;;
25299;SDS011;13241;51.208;4.432;2023-02-15T05:53:42;40.45;;;16.83;;
25299;SDS011;13241;51.208;4.432;2023-02-15T05:56:09;40.67;;;16.58;;
25299;SDS011;13241;51.208;4.432;2023-02-15T05:58:38;31.13;;;15.75;;
25299;SDS011;13241;51.208;4.432;2023-02-15T06:01:13;34.92;;;14.82;;
25299;SDS011;13241;51.208;4.432;2023-02-15T06:03:44;29.15;;;14.00;;
25299;SDS011;13241;51.208;4.432;2023-02-15T06:06:12;30.35;;;13.27;;
25299;SDS011;13241;51.208;4.432;2023-02-15T06:08:39;35.65;;;16.17;;
25299;SDS011;13241;51.208;4.432;2023-02-15T06:11:06;36.42;;;15.35;;
25299;SDS011;13241;51.208;4.432;2023-02-15T06:13:33;29.73;;;15.07;;
25299;SDS011;13241;51.208;4.432;2023-02-15T06:16:04;36.70;;;16.67;;
25299;SDS011;13241;51.208;4.432;2023-02-15T06:18:32;38.05;;;16.45;;
25299;SDS011;13241;51.208;4.432;2023-02-15T06:20:58;29.33;;;13.75;;
25299;SDS011;13241;51.208;4.432;2023-02-15T06:23:25;32.42;;;14.70;;
25299;SDS011;13241;51.208;4.432;2023-02-15T06:25:52;36.25;;;15.40;;
25299;SDS011;13241;51.208;4.432;2023-02-15T06:28:19;35.75;;;16.08;;
25299;SDS011;13241;51.208;4.432;2023-02-15T06:30:46;34.15;;;14.18;;
25299;SDS011;13241;51.208;4.432;2023-02-15T06:33:13;33.13;;;15.32;;
25299;SDS011;13241;51.208;4.432;2023-02-15T06:35:40;29.58;;;14.75;;
25299;SDS011;13241;51.208;4.432;2023-02-15T06:38:07;29.60;;;14.32;;
25299;SDS011;13241;51.208;4.432;2023-02-15T06:40:34;38.42;;;15.25;;
25299;SDS011;13241;51.208;4.432;2023-02-15T06:43:00;29.38;;;14.02;;
25299;SDS011;13241;51.208;4.432;2023-02-15T06:45:27;34.00;;;15.27;;
25299;SDS011;13241;51.208;4.432;2023-02-15T06:47:54;32.70;;;14.40;;
25299;SDS011;13241;51.208;4.432;2023-02-15T06:50:21;27.83;;;15.18;;
25299;SDS011;13241;51.208;4.432;2023-02-15T06:52:48;30.05;;;14.80;;
25299;SDS011;13241;51.208;4.432;2023-02-15T06:55:15;35.38;;;15.43;;
25299;SDS011;13241;51.208;4.432;2023-02-15T06:57:41;36.80;;;16.52;;
25299;SDS011;13241;51.208;4.432;2023-02-15T07:00:08;28.90;;;13.90;;
25299;SDS011;13241;51.208;4.432;2023-02-15T07:02:36;36.13;;;14.90;;
25299;SDS011;13241;51.208;4.432;2023-02-15T07:05:02;35.88;;;15.32;;
25299;SDS011;13241;51.208;4.432;2023-02-15T07:07:31;36.25;;;16.33;;
25299;SDS011;13241;51.208;4.432;2023-02-15T07:09:58;27.67;;;14.38;;
25299;SDS011;13241;51.208;4.432;2023-02-15T07:12:25;41.45;;;15.60;;
25299;SDS011;13241;51.208;4.432;2023-02-15T07:15:12;36.38;;;14.50;;
25299;SDS011;13241;51.208;4.432;2023-02-15T07:17:41;29.85;;;15.35;;
25299;SDS011;13241;51.208;4.432;2023-02-15T07:20:21;35.63;;;16.75;;
25299;SDS011;13241;51.208;4.432;2023-02-15T07:22:49;36.75;;;15.77;;
25299;SDS011;13241;51.208;4.432;2023-02-15T07:25:16;49.22;;;17.00;;
25299;SDS011;13241;51.208;4.432;2023-02-15T07:27:44;27.77;;;15.02;;
25299;SDS011;13241;51.208;4.432;2023-02-15T07:30:12;32.22;;;13.68;;
25299;SDS011;13241;51.208;4.432;2023-02-15T07:32:41;31.45;;;15.05;;
25299;SDS011;13241;51.208;4.432;2023-02-15T07:35:30;49.60;;;18.48;;
25299;SDS011;13241;51.208;4.432;2023-02-15T07:37:57;52.33;;;15.55;;
25299;SDS011;13241;51.208;4.432;2023-02-15T07:40:24;36.05;;;14.93;;
25299;SDS011;13241;51.208;4.432;2023-02-15T07:42:51;33.60;;;15.52;;
25299;SDS011;13241;51.208;4.432;2023-02-15T07:45:22;34.60;;;16.23;;
25299;SDS011;13241;51.208;4.432;2023-02-15T07:47:49;28.58;;;13.80;;
25299;SDS011;13241;51.208;4.432;2023-02-15T07:50:15;30.70;;;15.07;;
25299;SDS011;13241;51.208;4.432;2023-02-15T07:52:42;37.15;;;14.73;;
25299;SDS011;13241;51.208;4.432;2023-02-15T07:55:09;35.67;;;16.75;;
25299;SDS011;13241;51.208;4.432;2023-02-15T07:57:42;42.78;;;15.73;;
25299;SDS011;13241;51.208;4.432;2023-02-15T08:00:11;29.55;;;14.77;;
25299;SDS011;13241;51.208;4.432;2023-02-15T08:02:39;34.97;;;14.50;;
25299;SDS011;13241;51.208;4.432;2023-02-15T08:05:06;51.05;;;15.20;;
25299;SDS011;13241;51.208;4.432;2023-02-15T08:07:33;43.47;;;16.48;;
25299;SDS011;13241;51.208;4.432;2023-02-15T08:10:00;34.78;;;13.98;;
25299;SDS011;13241;51.208;4.432;2023-02-15T08:12:27;38.05;;;16.08;;
25299;SDS011;13241;51.208;4.432;2023-02-15T08:14:54;33.83;;;13.90;;
25299;SDS011;13241;51.208;4.432;2023-02-15T08:17:20;35.38;;;14.00;;
25299;SDS011;13241;51.208;4.432;2023-02-15T08:19:47;27.67;;;13.15;;
25299;SDS011;13241;51.208;4.432;2023-02-15T08:22:14;33.05;;;15.32;;
25299;SDS011;13241;51.208;4.432;2023-02-15T08:24:41;30.85;;;15.40;;
25299;SDS011;13241;51.208;4.432;2023-02-15T08:27:09;27.25;;;14.50;;
25299;SDS011;13241;51.208;4.432;2023-02-15T08:29:37;26.85;;;14.25;;
25299;SDS011;13241;51.208;4.432;2023-02-15T08:32:06;31.80;;;15.48;;
25299;SDS011;13241;51.208;4.432;2023-02-15T08:34:37;34.42;;;15.13;;
25299;SDS011;13241;51.208;4.432;2023-02-15T08:37:06;38.72;;;16.02;;
25299;SDS011;13241;51.208;4.432;2023-02-15T08:39:33;38.53;;;15.27;;
25299;SDS011;13241;51.208;4.432;2023-02-15T08:41:59;36.90;;;14.98;;
25299;SDS011;13241;51.208;4.432;2023-02-15T08:44:26;42.17;;;17.60;;
25299;SDS011;13241;51.208;4.432;2023-02-15T08:46:53;40.50;;;15.38;;
25299;SDS011;13241;51.208;4.432;2023-02-15T08:49:21;26.13;;;13.63;;
25299;SDS011;13241;51.208;4.432;2023-02-15T08:51:48;35.05;;;15.90;;
25299;SDS011;13241;51.208;4.432;2023-02-15T08:54:18;25.45;;;13.35;;
25299;SDS011;13241;51.208;4.432;2023-02-15T08:56:46;26.25;;;13.75;;
25299;SDS011;13241;51.208;4.432;2023-02-15T08:59:14;36.45;;;16.23;;
25299;SDS011;13241;51.208;4.432;2023-02-15T09:01:42;25.48;;;13.68;;
25299;SDS011;13241;51.208;4.432;2023-02-15T09:04:09;31.40;;;13.95;;
25299;SDS011;13241;51.208;4.432;2023-02-15T09:06:37;41.05;;;15.07;;
25299;SDS011;13241;51.208;4.432;2023-02-15T09:09:05;27.50;;;15.10;;
25299;SDS011;13241;51.208;4.432;2023-02-15T09:11:34;42.13;;;16.48;;
25299;SDS011;13241;51.208;4.432;2023-02-15T09:14:08;40.33;;;15.45;;
25299;SDS011;13241;51.208;4.432;2023-02-15T09:16:40;27.35;;;15.73;;
25299;SDS011;13241;51.208;4.432;2023-02-15T09:19:11;28.20;;;13.23;;
25299;SDS011;13241;51.208;4.432;2023-02-15T09:21:38;33.03;;;13.38;;
25299;SDS011;13241;51.208;4.432;2023-02-15T09:24:06;31.95;;;15.05;;
25299;SDS011;13241;51.208;4.432;2023-02-15T09:26:38;37.20;;;14.65;;
25299;SDS011;13241;51.208;4.432;2023-02-15T09:29:09;39.50;;;17.48;;
25299;SDS011;13241;51.208;4.432;2023-02-15T09:31:42;35.30;;;16.17;;
25299;SDS011;13241;51.208;4.432;2023-02-15T09:34:11;33.10;;;13.40;;
25299;SDS011;13241;51.208;4.432;2023-02-15T09:36:39;33.75;;;14.80;;
25299;SDS011;13241;51.208;4.432;2023-02-15T09:39:09;33.95;;;12.85;;
25299;SDS011;13241;51.208;4.432;2023-02-15T09:47:25;28.55;;;12.70;;
25299;SDS011;13241;51.208;4.432;2023-02-15T09:55:44;25.17;;;13.35;;
25299;SDS011;13241;51.208;4.432;2023-02-15T09:58:19;32.00;;;11.85;;
25299;SDS011;13241;51.208;4.432;2023-02-15T10:01:09;28.55;;;12.82;;
25299;SDS011;13241;51.208;4.432;2023-02-15T10:17:27;29.48;;;13.48;;
25299;SDS011;13241;51.208;4.432;2023-02-15T10:20:17;29.30;;;13.25;;
25299;SDS011;13241;51.208;4.432;2023-02-15T10:22:57;27.80;;;12.75;;
25299;SDS011;13241;51.208;4.432;2023-02-15T10:28:19;25.63;;;12.07;;
25299;SDS011;13241;51.208;4.432;2023-02-15T10:30:50;32.40;;;12.68;;
25299;SDS011;13241;51.208;4.432;2023-02-15T10:39:30;38.08;;;14.25;;
25299;SDS011;13241;51.208;4.432;2023-02-15T10:42:06;27.10;;;12.90;;
25299;SDS011;13241;51.208;4.432;2023-02-15T10:45:05;36.42;;;12.07;;
25299;SDS011;13241;51.208;4.432;2023-02-15T10:50:45;25.30;;;11.93;;
25299;SDS011;13241;51.208;4.432;2023-02-15T10:55:59;29.38;;;12.32;;
25299;SDS011;13241;51.208;4.432;2023-02-15T10:58:47;32.90;;;12.07;;
25299;SDS011;13241;51.208;4.432;2023-02-15T11:01:53;25.48;;;11.10;;
25299;SDS011;13241;51.208;4.432;2023-02-15T11:07:32;31.67;;;11.32;;
25299;SDS011;13241;51.208;4.432;2023-02-15T11:10:02;24.77;;;11.48;;
25299;SDS011;13241;51.208;4.432;2023-02-15T11:12:32;25.40;;;11.50;;
25299;SDS011;13241;51.208;4.432;2023-02-15T11:15:01;26.65;;;12.63;;
25299;SDS011;13241;51.208;4.432;2023-02-15T11:17:43;25.35;;;11.75;;
25299;SDS011;13241;51.208;4.432;2023-02-15T11:22:39;28.27;;;13.13;;
25299;SDS011;13241;51.208;4.432;2023-02-15T11:25:17;25.05;;;12.35;;
25299;SDS011;13241;51.208;4.432;2023-02-15T11:27:45;26.08;;;12.27;;
25299;SDS011;13241;51.208;4.432;2023-02-15T11:30:17;30.35;;;12.57;;
25299;SDS011;13241;51.208;4.432;2023-02-15T11:32:46;29.27;;;13.82;;
25299;SDS011;13241;51.208;4.432;2023-02-15T11:35:32;29.13;;;12.40;;
25299;SDS011;13241;51.208;4.432;2023-02-15T11:40:31;29.10;;;11.55;;
25299;SDS011;13241;51.208;4.432;2023-02-15T11:43:07;34.10;;;11.15;;
25299;SDS011;13241;51.208;4.432;2023-02-15T11:45:39;23.90;;;12.32;;
25299;SDS011;13241;51.208;4.432;2023-02-15T11:48:11;37.83;;;12.20;;
25299;SDS011;13241;51.208;4.432;2023-02-15T11:50:39;29.60;;;12.60;;
25299;SDS011;13241;51.208;4.432;2023-02-15T11:53:12;31.08;;;11.73;;
25299;SDS011;13241;51.208;4.432;2023-02-15T11:55:41;35.85;;;13.35;;
25299;SDS011;13241;51.208;4.432;2023-02-15T12:01:02;33.53;;;12.88;;
25299;SDS011;13241;51.208;4.432;2023-02-15T12:03:47;28.30;;;11.13;;
25299;SDS011;13241;51.208;4.432;2023-02-15T12:06:17;32.33;;;13.18;;
25299;SDS011;13241;51.208;4.432;2023-02-15T12:08:51;37.55;;;13.70;;
25299;SDS011;13241;51.208;4.432;2023-02-15T12:11:25;26.38;;;13.07;;
25299;SDS011;13241;51.208;4.432;2023-02-15T12:14:05;28.33;;;12.80;;
25299;SDS011;13241;51.208;4.432;2023-02-15T12:16:45;29.10;;;12.25;;
25299;SDS011;13241;51.208;4.432;2023-02-15T12:19:18;24.42;;;11.95;;
25299;SDS011;13241;51.208;4.432;2023-02-15T12:21:49;25.98;;;10.98;;
25299;SDS011;13241;51.208;4.432;2023-02-15T12:27:14;34.40;;;11.32;;
25299;SDS011;13241;51.208;4.432;2023-02-15T12:29:43;28.88;;;13.40;;
25299;SDS011;13241;51.208;4.432;2023-02-15T12:32:27;33.45;;;12.07;;
25299;SDS011;13241;51.208;4.432;2023-02-15T12:35:19;25.85;;;11.55;;
25299;SDS011;13241;51.208;4.432;2023-02-15T12:37:52;28.17;;;12.15;;
25299;SDS011;13241;51.208;4.432;2023-02-15T12:40:22;27.52;;;10.95;;
25299;SDS011;13241;51.208;4.432;2023-02-15T12:42:52;30.48;;;11.63;;
25299;SDS011;13241;51.208;4.432;2023-02-15T12:45:21;33.58;;;12.25;;
25299;SDS011;13241;51.208;4.432;2023-02-15T12:47:50;25.15;;;11.85;;
25299;SDS011;13241;51.208;4.432;2023-02-15T12:50:34;35.15;;;12.20;;
25299;SDS011;13241;51.208;4.432;2023-02-15T12:53:11;24.95;;;11.70;;
25299;SDS011;13241;51.208;4.432;2023-02-15T12:55:49;26.50;;;12.18;;
25299;SDS011;13241;51.208;4.432;2023-02-15T12:58:17;29.20;;;11.68;;
25299;SDS011;13241;51.208;4.432;2023-02-15T13:00:45;31.17;;;12.85;;
25299;SDS011;13241;51.208;4.432;2023-02-15T13:03:16;34.38;;;13.00;;
25299;SDS011;13241;51.208;4.432;2023-02-15T13:05:44;29.80;;;12.07;;
25299;SDS011;13241;51.208;4.432;2023-02-15T13:08:17;30.20;;;12.88;;
25299;SDS011;13241;51.208;4.432;2023-02-15T13:13:26;34.90;;;12.40;;
25299;SDS011;13241;51.208;4.432;2023-02-15T13:15:57;18.98;;;9.48;;
25299;SDS011;13241;51.208;4.432;2023-02-15T13:18:34;34.85;;;13.32;;
25299;SDS011;13241;51.208;4.432;2023-02-15T13:21:13;29.77;;;11.75;;
25299;SDS011;13241;51.208;4.432;2023-02-15T13:23:56;27.85;;;12.15;;
25299;SDS011;13241;51.208;4.432;2023-02-15T13:26:31;30.98;;;12.45;;
25299;SDS011;13241;51.208;4.432;2023-02-15T13:29:05;29.10;;;13.32;;
25299;SDS011;13241;51.208;4.432;2023-02-15T13:31:38;24.17;;;11.90;;
25299;SDS011;13241;51.208;4.432;2023-02-15T13:34:10;24.40;;;12.02;;
25299;SDS011;13241;51.208;4.432;2023-02-15T13:36:57;28.90;;;11.75;;
25299;SDS011;13241;51.208;4.432;2023-02-15T13:42:18;24.58;;;11.27;;
25299;SDS011;13241;51.208;4.432;2023-02-15T13:47:44;28.20;;;12.63;;
25299;SDS011;13241;51.208;4.432;2023-02-15T13:50:43;27.05;;;13.15;;
25299;SDS011;13241;51.208;4.432;2023-02-15T13:53:25;29.83;;;12.15;;
25299;SDS011;13241;51.208;4.432;2023-02-15T13:59:02;36.35;;;13.85;;
25299;SDS011;13241;51.208;4.432;2023-02-15T14:01:51;29.15;;;12.35;;
25299;SDS011;13241;51.208;4.432;2023-02-15T14:07:12;36.67;;;13.55;;
25299;SDS011;13241;51.208;4.432;2023-02-15T14:19:09;28.50;;;11.32;;
25299;SDS011;13241;51.208;4.432;2023-02-15T14:22:00;34.10;;;13.60;;
25299;SDS011;13241;51.208;4.432;2023-02-15T14:27:41;35.08;;;12.45;;
25299;SDS011;13241;51.208;4.432;2023-02-15T14:30:20;27.58;;;12.00;;
25299;SDS011;13241;51.208;4.432;2023-02-15T14:33:01;27.23;;;12.10;;
25299;SDS011;13241;51.208;4.432;2023-02-15T14:35:51;27.73;;;12.15;;
25299;SDS011;13241;51.208;4.432;2023-02-15T14:41:17;32.95;;;12.52;;
25299;SDS011;13241;51.208;4.432;2023-02-15T14:44:08;26.48;;;12.07;;
25299;SDS011;13241;51.208;4.432;2023-02-15T14:46:44;28.20;;;12.73;;
25299;SDS011;13241;51.208;4.432;2023-02-15T14:49:23;25.58;;;12.02;;
25299;SDS011;13241;51.208;4.432;2023-02-15T14:51:57;29.33;;;12.15;;
25299;SDS011;13241;51.208;4.432;2023-02-15T15:01:58;47.72;;;13.75;;
25299;SDS011;13241;51.208;4.432;2023-02-15T15:10:02;30.10;;;12.18;;
25299;SDS011;13241;51.208;4.432;2023-02-15T15:12:49;26.92;;;12.60;;
25299;SDS011;13241;51.208;4.432;2023-02-15T15:25:45;24.92;;;12.40;;
25299;SDS011;13241;51.208;4.432;2023-02-15T15:31:05;27.52;;;12.02;;
25299;SDS011;13241;51.208;4.432;2023-02-15T15:50:34;26.90;;;12.98;;
25299;SDS011;13241;51.208;4.432;2023-02-15T15:53:06;28.98;;;13.23;;
25299;SDS011;13241;51.208;4.432;2023-02-15T15:55:47;30.83;;;13.68;;
25299;SDS011;13241;51.208;4.432;2023-02-15T15:58:16;34.80;;;13.40;;
25299;SDS011;13241;51.208;4.432;2023-02-15T16:00:51;28.70;;;12.05;;
25299;SDS011;13241;51.208;4.432;2023-02-15T16:03:25;30.17;;;13.50;;
25299;SDS011;13241;51.208;4.432;2023-02-15T16:05:53;29.17;;;12.13;;
25299;SDS011;13241;51.208;4.432;2023-02-15T16:08:25;35.28;;;13.20;;
25299;SDS011;13241;51.208;4.432;2023-02-15T16:10:53;32.13;;;13.90;;
25299;SDS011;13241;51.208;4.432;2023-02-15T16:13:21;27.70;;;13.18;;
25299;SDS011;13241;51.208;4.432;2023-02-15T16:15:49;34.88;;;13.48;;
25299;SDS011;13241;51.208;4.432;2023-02-15T16:18:22;22.63;;;12.48;;
25299;SDS011;13241;51.208;4.432;2023-02-15T16:20:55;32.35;;;13.02;;
25299;SDS011;13241;51.208;4.432;2023-02-15T16:29:28;32.83;;;13.30;;
25299;SDS011;13241;51.208;4.432;2023-02-15T16:32:15;33.80;;;12.88;;
25299;SDS011;13241;51.208;4.432;2023-02-15T16:34:57;38.53;;;13.38;;
25299;SDS011;13241;51.208;4.432;2023-02-15T16:37:31;26.60;;;12.48;;
25299;SDS011;13241;51.208;4.432;2023-02-15T16:39:59;26.48;;;11.93;;
25299;SDS011;13241;51.208;4.432;2023-02-15T16:42:26;24.42;;;12.32;;
25299;SDS011;13241;51.208;4.432;2023-02-15T16:47:36;35.42;;;14.05;;
25299;SDS011;13241;51.208;4.432;2023-02-15T16:50:16;25.55;;;12.35;;
25299;SDS011;13241;51.208;4.432;2023-02-15T16:52:47;33.15;;;12.65;;
25299;SDS011;13241;51.208;4.432;2023-02-15T16:55:25;26.35;;;12.45;;
25299;SDS011;13241;51.208;4.432;2023-02-15T16:58:00;32.08;;;14.32;;
25299;SDS011;13241;51.208;4.432;2023-02-15T17:00:31;27.17;;;13.70;;
25299;SDS011;13241;51.208;4.432;2023-02-15T17:05:56;29.42;;;13.55;;
25299;SDS011;13241;51.208;4.432;2023-02-15T17:08:34;28.88;;;12.73;;
25299;SDS011;13241;51.208;4.432;2023-02-15T17:16:36;29.80;;;13.00;;
25299;SDS011;13241;51.208;4.432;2023-02-15T17:19:29;29.10;;;13.20;;
25299;SDS011;13241;51.208;4.432;2023-02-15T17:22:03;28.67;;;13.43;;
25299;SDS011;13241;51.208;4.432;2023-02-15T17:24:42;32.97;;;14.63;;
25299;SDS011;13241;51.208;4.432;2023-02-15T17:27:24;34.13;;;13.52;;
25299;SDS011;13241;51.208;4.432;2023-02-15T17:29:56;36.45;;;15.10;;
25299;SDS011;13241;51.208;4.432;2023-02-15T17:32:28;29.63;;;13.82;;
25299;SDS011;13241;51.208;4.432;2023-02-15T17:42:53;27.42;;;13.50;;
25299;SDS011;13241;51.208;4.432;2023-02-15T17:45:20;33.80;;;13.95;;